createdAt,value
2023-02-02T00:01:56.565Z,99903.50
2023-02-02T00:04:35.963Z,99902.25
2023-02-02T00:07:05.744Z,99901.69
2023-02-02T00:09:34.798Z,99909.16
2023-02-02T00:12:03.831Z,99900.31
2023-02-02T00:14:32.429Z,99910.44
2023-02-02T00:17:01.091Z,99912.22
2023-02-02T00:19:31.699Z,99917.50
2023-02-02T00:22:00.462Z,99923.88
2023-02-02T00:24:29.264Z,99931.22
2023-02-02T00:27:00.866Z,99932.88
2023-02-02T00:29:32.253Z,99928.03
2023-02-02T00:32:00.874Z,99928.16
2023-02-02T00:34:29.474Z,99926.91
2023-02-02T00:36:58.086Z,99922.47
2023-02-02T00:39:27.520Z,99932.06
2023-02-02T00:41:56.402Z,99929.00
2023-02-02T00:44:42.291Z,99926.63
2023-02-02T00:47:10.997Z,99928.88
2023-02-02T00:49:39.591Z,99929.81
2023-02-02T00:52:08.283Z,99928.84
2023-02-02T00:54:36.901Z,99937.44
2023-02-02T00:57:05.627Z,99934.78
2023-02-02T00:59:34.546Z,99938.56
2023-02-02T01:02:03.244Z,99942.97
2023-02-02T01:04:32.047Z,99930.63
2023-02-02T01:07:00.703Z,99938.56
2023-02-02T01:09:29.295Z,99936.31
2023-02-02T01:11:58.086Z,99939.66
2023-02-02T01:14:26.804Z,99930.75
2023-02-02T01:16:55.425Z,99924.66
2023-02-02T01:19:24.090Z,99928.09
2023-02-02T01:21:52.727Z,99925.34
2023-02-02T01:24:21.414Z,99934.94
2023-02-02T01:26:50.154Z,99929.09
2023-02-02T01:29:18.751Z,99936.19
2023-02-02T01:31:47.532Z,99927.44
2023-02-02T01:34:16.251Z,99921.59
2023-02-02T01:36:44.897Z,99920.19
2023-02-02T01:39:13.477Z,99925.75
2023-02-02T01:41:43.191Z,99924.38
2023-02-02T01:44:58.132Z,99918.41
2023-02-02T01:47:31.846Z,99917.16
2023-02-02T01:50:00.623Z,99904.94
2023-02-02T01:52:31.650Z,99908.59
2023-02-02T01:55:08.578Z,99912.47
2023-02-02T01:57:59.332Z,99910.69
2023-02-02T02:00:28.421Z,99916.09
2023-02-02T02:03:06.543Z,99921.91
2023-02-02T02:05:46.330Z,99924.00
2023-02-02T02:08:26.727Z,99927.06
2023-02-02T02:10:55.541Z,99929.84
2023-02-02T02:13:47.885Z,99934.13
2023-02-02T02:16:57.019Z,99932.63
2023-02-02T02:20:03.845Z,99936.31
2023-02-02T02:23:21.404Z,99934.81
2023-02-02T02:26:24.794Z,99940.22
2023-02-02T02:28:59.525Z,99933.13
2023-02-02T02:31:36.734Z,99937.44
2023-02-02T02:34:15.907Z,99949.91
2023-02-02T02:36:44.513Z,99951.84
2023-02-02T02:39:24.820Z,99947.69
2023-02-02T02:42:00.873Z,99955.47
2023-02-02T02:44:30.742Z,99954.91
2023-02-02T02:46:59.463Z,99951.16
2023-02-02T02:49:28.085Z,99957.94
2023-02-02T02:51:57.922Z,99962.41
2023-02-02T02:54:40.048Z,99966.53
2023-02-02T02:57:43.373Z,99967.53
2023-02-02T03:00:21.476Z,99964.03
2023-02-02T03:03:28.629Z,99966.66
2023-02-02T03:06:24.753Z,99966.53
2023-02-02T03:08:53.405Z,99960.25
2023-02-02T03:11:22.746Z,99961.53
2023-02-02T03:13:51.680Z,99962.38
2023-02-02T03:16:20.217Z,99959.00
2023-02-02T03:18:48.959Z,99949.72
2023-02-02T03:21:17.548Z,99962.91
2023-02-02T03:23:46.153Z,99955.81
2023-02-02T03:26:15.202Z,99958.03
2023-02-02T03:28:44.098Z,99960.41
2023-02-02T03:31:12.826Z,99958.44
2023-02-02T03:33:41.569Z,99957.38
2023-02-02T03:36:10.528Z,99959.44
2023-02-02T03:38:39.189Z,99954.81
2023-02-02T03:41:08.146Z,99963.28
2023-02-02T03:43:36.787Z,99977.59
2023-02-02T03:46:07.279Z,99980.94
2023-02-02T03:48:40.028Z,99984.00
2023-02-02T03:51:14.763Z,99990.34
2023-02-02T03:53:44.516Z,99989.69
2023-02-02T03:56:13.103Z,99996.22
2023-02-02T03:58:41.770Z,99991.75
2023-02-02T04:01:14.618Z,99988.56
2023-02-02T04:03:43.375Z,99990.78
2023-02-02T04:06:12.022Z,99987.97
2023-02-02T04:08:40.551Z,99996.06
2023-02-02T04:11:11.764Z,100004.69
2023-02-02T04:13:43.323Z,99998.72
2023-02-02T04:16:12.842Z,100007.34
2023-02-02T04:18:41.372Z,100003.31
2023-02-02T04:21:10.281Z,100009.72
2023-02-02T04:23:38.876Z,100012.78
2023-02-02T04:26:07.700Z,100013.47
2023-02-02T04:28:36.348Z,100024.00
2023-02-02T04:31:04.875Z,100027.59
2023-02-02T04:33:33.294Z,100033.97
2023-02-02T04:36:01.724Z,100028.03
2023-02-02T04:38:30.150Z,100031.50
2023-02-02T04:40:58.636Z,100043.69
2023-02-02T04:43:27.044Z,100040.22
2023-02-02T04:45:58.513Z,100040.66
2023-02-02T04:48:26.978Z,100029.84
2023-02-02T04:51:08.183Z,100048.72
2023-02-02T04:53:36.778Z,100044.28
2023-02-02T04:56:19.848Z,100058.59
2023-02-02T04:58:48.436Z,100050.66
2023-02-02T05:01:20.833Z,100065.66
2023-02-02T05:03:50.347Z,100066.50
2023-02-02T05:06:19.723Z,100070.53
2023-02-02T05:08:49.188Z,100067.91
2023-02-02T05:11:21.098Z,100066.78
2023-02-02T05:13:52.473Z,100069.41
2023-02-02T05:16:21.588Z,100067.91
2023-02-02T05:18:56.644Z,100067.47
2023-02-02T05:21:25.750Z,100075.66
2023-02-02T05:23:54.214Z,100086.88
2023-02-02T05:26:26.254Z,100089.00
2023-02-02T05:28:55.140Z,100096.91
2023-02-02T05:31:23.597Z,100101.34
2023-02-02T05:33:52.024Z,100098.56
2023-02-02T05:36:20.440Z,100098.00
2023-02-02T05:38:48.896Z,100093.72
2023-02-02T05:41:17.489Z,100097.31
2023-02-02T05:43:45.931Z,100097.44
2023-02-02T05:46:14.708Z,100101.91
2023-02-02T05:48:43.381Z,100100.50
2023-02-02T05:51:24.221Z,100105.78
2023-02-02T05:53:52.681Z,100114.38
2023-02-02T05:56:21.263Z,100112.03
2023-02-02T05:58:50.011Z,100114.53
2023-02-02T06:01:21.442Z,100117.16
2023-02-02T06:03:50.226Z,100117.97
2023-02-02T06:06:18.879Z,100124.81
2023-02-02T06:08:47.431Z,100126.44
2023-02-02T06:11:19.014Z,100128.53
2023-02-02T06:13:47.799Z,100134.25
2023-02-02T06:16:16.561Z,100143.66
2023-02-02T06:18:45.331Z,100139.78
2023-02-02T06:21:13.838Z,100141.41
2023-02-02T06:23:45.709Z,100144.31
2023-02-02T06:26:15.464Z,100149.59
2023-02-02T06:28:44.497Z,100144.75
2023-02-02T06:31:13.521Z,100150.72
2023-02-02T06:33:42.086Z,100148.63
2023-02-02T06:36:10.612Z,100149.88
2023-02-02T06:38:39.065Z,100151.72
2023-02-02T06:41:08.074Z,100150.03
2023-02-02T06:43:36.878Z,100153.94
2023-02-02T06:46:05.521Z,100163.50
2023-02-02T06:48:34.025Z,100160.31
2023-02-02T06:51:02.866Z,100154.66
2023-02-02T06:53:31.430Z,100164.78
2023-02-02T06:56:05.976Z,100163.81
2023-02-02T06:58:35.756Z,100157.88
2023-02-02T07:01:07.429Z,100159.22
2023-02-02T07:03:36.189Z,100166.19
2023-02-02T07:06:24.109Z,100170.22
2023-02-02T07:09:02.501Z,100172.31
2023-02-02T07:11:38.522Z,100176.75
2023-02-02T07:14:13.369Z,100183.97
2023-02-02T07:16:41.769Z,100184.78
2023-02-02T07:19:10.414Z,100193.97
2023-02-02T07:21:38.868Z,100194.53
2023-02-02T07:24:08.214Z,100199.53
2023-02-02T07:26:37.179Z,100213.56
2023-02-02T07:29:06.655Z,100217.31
2023-02-02T07:31:36.796Z,100214.94
2023-02-02T07:34:05.553Z,100211.91
2023-02-02T07:36:34.156Z,100208.84
2023-02-02T07:39:04.794Z,100205.50
2023-02-02T07:41:35.185Z,100218.28
2023-02-02T07:44:03.988Z,100221.88
2023-02-02T07:46:32.800Z,100222.88
2023-02-02T07:49:01.302Z,100218.56
2023-02-02T07:51:29.757Z,100225.22
2023-02-02T07:53:59.520Z,100227.03
2023-02-02T07:56:29.204Z,100234.38
2023-02-02T07:58:58.591Z,100236.75
2023-02-02T08:01:28.830Z,100239.25
2023-02-02T08:04:00.379Z,100239.09
2023-02-02T08:06:40.500Z,100238.53
2023-02-02T08:09:10.483Z,100245.22
2023-02-02T08:11:39.727Z,100245.75
2023-02-02T08:14:08.614Z,100247.16
2023-02-02T08:16:37.267Z,100251.03
2023-02-02T08:19:05.913Z,100255.66
2023-02-02T08:21:36.127Z,100260.09
2023-02-02T08:24:05.314Z,100265.38
2023-02-02T08:26:34.179Z,100265.09
2023-02-02T08:29:07.955Z,100272.16
2023-02-02T08:31:39.374Z,100266.31
2023-02-02T08:34:07.912Z,100269.94
2023-02-02T08:36:36.165Z,100278.16
2023-02-02T08:39:08.247Z,100282.75
2023-02-02T08:41:37.646Z,100281.06
2023-02-02T08:44:11.688Z,100284.13
2023-02-02T08:46:40.384Z,100286.31
2023-02-02T08:49:11.704Z,100285.78
2023-02-02T08:51:40.313Z,100291.91
2023-02-02T08:54:08.813Z,100288.00
2023-02-02T08:56:36.887Z,100296.78
2023-02-02T08:59:05.932Z,100297.19
2023-02-02T09:01:36.101Z,100294.78
2023-02-02T09:04:07.744Z,100297.69
2023-02-02T09:06:41.114Z,100292.84
2023-02-02T09:09:14.001Z,100304.94
2023-02-02T09:11:43.273Z,100305.78
2023-02-02T09:14:14.226Z,100300.50
2023-02-02T09:16:42.899Z,100313.69
2023-02-02T09:19:13.251Z,100317.03
2023-02-02T09:21:41.716Z,100317.56
2023-02-02T09:24:13.955Z,100322.72
2023-02-02T09:26:42.487Z,100320.75
2023-02-02T09:29:15.344Z,100324.38
2023-02-02T09:31:43.995Z,100333.41
2023-02-02T09:34:15.463Z,100326.69
2023-02-02T09:36:45.011Z,100339.50
2023-02-02T09:39:15.151Z,100343.25
2023-02-02T09:41:43.610Z,100339.16
2023-02-02T09:44:22.500Z,100348.75
2023-02-02T09:47:14.837Z,100346.78
2023-02-02T09:49:49.513Z,100347.47
2023-02-02T09:52:27.239Z,100353.31
2023-02-02T09:55:04.752Z,100354.13
2023-02-02T09:57:51.166Z,100350.13
2023-02-02T10:00:27.948Z,100355.13
2023-02-02T10:03:03.414Z,100372.09
2023-02-02T10:05:48.647Z,100361.50
2023-02-02T10:08:38.063Z,100368.31
2023-02-02T10:11:41.582Z,100372.34
2023-02-02T10:14:40.142Z,100370.91
2023-02-02T10:17:42.322Z,100369.47
2023-02-02T10:20:56.588Z,100367.19
2023-02-02T10:23:44.355Z,100364.38
2023-02-02T10:26:56.949Z,100370.41
2023-02-02T10:29:25.519Z,100373.41
2023-02-02T10:32:25.421Z,100378.69
2023-02-02T10:35:13.474Z,100375.19
2023-02-02T10:37:51.461Z,100380.75
2023-02-02T10:40:51.157Z,100365.16
2023-02-02T10:43:49.566Z,100370.53
2023-02-02T10:46:39.739Z,100374.00
2023-02-02T10:49:36.201Z,100374.31
2023-02-02T10:52:16.923Z,100379.00
2023-02-02T10:55:04.471Z,100379.00
2023-02-02T10:58:27.754Z,100377.91
2023-02-02T11:01:02.076Z,100389.66
2023-02-02T11:03:32.813Z,100382.13
2023-02-02T11:06:21.800Z,100381.69
2023-02-02T11:08:59.533Z,100384.09
2023-02-02T11:11:33.796Z,100386.09
2023-02-02T11:14:11.108Z,100392.34
2023-02-02T11:16:47.253Z,100398.47
2023-02-02T11:19:31.239Z,100385.53
2023-02-02T11:22:03.517Z,100396.81
2023-02-02T11:24:49.689Z,100404.47
2023-02-02T11:27:18.340Z,100404.31
2023-02-02T11:29:55.213Z,100408.28
2023-02-02T11:32:34.267Z,100406.69
2023-02-02T11:35:08.509Z,100411.88
2023-02-02T11:37:54.338Z,100412.00
2023-02-02T11:40:43.971Z,100415.59
2023-02-02T11:43:21.005Z,100419.59
2023-02-02T11:46:00.877Z,100423.78
2023-02-02T11:48:40.449Z,100421.41
2023-02-02T11:51:23.616Z,100425.66
2023-02-02T11:54:08.030Z,100428.31
2023-02-02T11:56:38.704Z,100425.72
2023-02-02T11:59:07.508Z,100423.19
2023-02-02T12:01:39.996Z,100433.13
2023-02-02T12:04:17.467Z,100433.16
2023-02-02T12:06:45.967Z,100431.38
2023-02-02T12:09:24.632Z,100440.72
2023-02-02T12:12:28.066Z,100447.75
2023-02-02T12:15:21.075Z,100446.78
2023-02-02T12:17:49.941Z,100447.50
2023-02-02T12:20:39.901Z,100448.28
2023-02-02T12:23:37.164Z,100439.91
2023-02-02T12:26:09.431Z,100453.97
2023-02-02T12:28:39.075Z,100442.81
2023-02-02T12:31:46.784Z,100447.91
2023-02-02T12:35:23.164Z,100451.19
2023-02-02T12:38:26.018Z,100454.56
2023-02-02T12:41:23.272Z,100460.19
2023-02-02T12:44:26.181Z,100455.81
2023-02-02T12:47:30.523Z,100448.97
2023-02-02T12:50:27.784Z,100462.94
2023-02-02T12:53:08.981Z,100473.00
2023-02-02T12:55:48.154Z,100480.41
2023-02-02T12:58:46.652Z,100473.44
2023-02-02T13:01:52.456Z,100484.19
2023-02-02T13:04:26.321Z,100478.66
2023-02-02T13:07:12.378Z,100483.94
2023-02-02T13:09:52.071Z,100482.66
2023-02-02T13:12:24.315Z,100482.13
2023-02-02T13:15:09.269Z,100494.25
2023-02-02T13:17:43.502Z,100492.19
2023-02-02T13:20:45.411Z,100501.41
2023-02-02T13:23:36.323Z,100502.63
2023-02-02T13:26:24.751Z,100506.16
2023-02-02T13:29:09.433Z,100500.69
2023-02-02T13:31:58.209Z,100502.00
2023-02-02T13:34:56.849Z,100530.28
2023-02-02T13:37:52.799Z,100523.34
2023-02-02T13:40:34.072Z,100535.19
2023-02-02T13:43:25.635Z,100549.00
2023-02-02T13:46:08.659Z,100530.50
2023-02-02T13:48:43.133Z,100537.63
2023-02-02T13:52:02.378Z,100550.16
2023-02-02T13:55:03.424Z,100543.09
2023-02-02T13:57:52.281Z,100545.00
2023-02-02T14:00:25.318Z,100545.75
2023-02-02T14:03:21.789Z,100551.59
2023-02-02T14:06:19.494Z,100545.03
2023-02-02T14:08:57.182Z,100556.19
2023-02-02T14:11:38.611Z,100553.25
2023-02-02T14:14:33.258Z,100562.75
2023-02-02T14:17:34.514Z,100557.44
2023-02-02T14:20:06.646Z,100561.34
2023-02-02T14:22:43.742Z,100569.84
2023-02-02T14:25:33.534Z,100574.44
2023-02-02T14:28:11.629Z,100575.16
2023-02-02T14:30:41.406Z,100567.03
2023-02-02T14:33:27.100Z,100572.47
2023-02-02T14:36:03.132Z,100577.03
2023-02-02T14:38:46.828Z,100593.66
2023-02-02T14:41:38.912Z,100587.91
2023-02-02T14:44:08.285Z,100592.13
2023-02-02T14:46:41.454Z,100595.72
2023-02-02T14:49:14.807Z,100602.00
2023-02-02T14:51:56.703Z,100601.88
2023-02-02T14:54:34.563Z,100603.00
2023-02-02T14:57:43.719Z,100610.78
2023-02-02T15:00:38.161Z,100606.31
2023-02-02T15:03:47.278Z,100631.28
2023-02-02T15:06:42.406Z,100634.78
2023-02-02T15:09:23.477Z,100647.16
2023-02-02T15:12:02.108Z,100642.97
2023-02-02T15:14:54.521Z,100652.31
2023-02-02T15:18:00.728Z,100651.91
2023-02-02T15:20:34.015Z,100658.19
2023-02-02T15:23:23.519Z,100657.06
2023-02-02T15:26:08.534Z,100664.31
2023-02-02T15:28:43.356Z,100664.88
2023-02-02T15:31:50.899Z,100670.28
2023-02-02T15:34:40.601Z,100667.91
2023-02-02T15:37:17.493Z,100683.13
2023-02-02T15:39:56.336Z,100689.53
2023-02-02T15:42:55.982Z,100683.53
2023-02-02T15:45:34.834Z,100702.72
2023-02-02T15:48:16.228Z,100714.00
2023-02-02T15:50:51.287Z,100719.56
2023-02-02T15:53:33.915Z,100725.25
2023-02-02T15:56:07.963Z,100733.41
2023-02-02T15:58:40.521Z,100732.69
2023-02-02T16:01:20.685Z,100744.31
2023-02-02T16:04:16.744Z,100757.47
2023-02-02T16:06:45.499Z,100760.50
2023-02-02T16:09:26.503Z,100765.47
2023-02-02T16:11:55.161Z,100765.16
2023-02-02T16:14:23.970Z,100770.44
2023-02-02T16:16:52.670Z,100791.00
2023-02-02T16:19:27.030Z,100784.72
2023-02-02T16:22:05.720Z,100787.88
2023-02-02T16:24:40.523Z,100797.88
2023-02-02T16:27:14.710Z,100802.44
2023-02-02T16:29:44.035Z,100801.59
2023-02-02T16:32:39.273Z,100803.28
2023-02-02T16:35:38.712Z,100816.38
2023-02-02T16:38:35.348Z,100818.06
2023-02-02T16:41:26.547Z,100830.69
2023-02-02T16:43:55.097Z,100833.31
2023-02-02T16:46:46.142Z,100835.69
2023-02-02T16:49:26.382Z,100837.13
2023-02-02T16:52:15.225Z,100838.09
2023-02-02T16:54:54.856Z,100848.56
2023-02-02T16:57:34.300Z,100847.00
2023-02-02T17:00:09.211Z,100857.69
2023-02-02T17:02:42.161Z,100861.28
2023-02-02T17:05:28.164Z,100871.41
2023-02-02T17:08:04.691Z,100872.50
2023-02-02T17:10:39.707Z,100877.31
2023-02-02T17:13:33.555Z,100877.47
2023-02-02T17:16:02.503Z,100882.00
2023-02-02T17:18:31.072Z,100890.06
2023-02-02T17:21:04.348Z,100885.28
2023-02-02T17:23:36.344Z,100882.16
2023-02-02T17:26:05.480Z,100889.72
2023-02-02T17:28:34.216Z,100895.63
2023-02-02T17:31:14.647Z,100891.44
2023-02-02T17:33:43.827Z,100908.13
2023-02-02T17:36:14.408Z,100903.19
2023-02-02T17:38:43.176Z,100911.13
2023-02-02T17:41:14.339Z,100914.16
2023-02-02T17:43:43.904Z,100911.88
2023-02-02T17:46:14.228Z,100909.94
2023-02-02T17:48:42.914Z,100916.28
2023-02-02T17:51:18.457Z,100922.44
2023-02-02T17:53:47.253Z,100920.97
2023-02-02T17:56:16.338Z,100918.59
2023-02-02T17:58:44.982Z,100922.19
2023-02-02T18:01:14.024Z,100921.47
2023-02-02T18:03:46.525Z,100932.16
2023-02-02T18:06:15.115Z,100931.91
2023-02-02T18:08:44.392Z,100935.25
2023-02-02T18:11:15.107Z,100928.09
2023-02-02T18:13:44.592Z,100928.31
2023-02-02T18:16:14.557Z,100930.38
2023-02-02T18:18:43.142Z,100940.06
2023-02-02T18:21:14.156Z,100930.72
2023-02-02T18:23:43.112Z,100932.66
2023-02-02T18:26:22.247Z,100931.91
2023-02-02T18:28:53.495Z,100925.44
2023-02-02T18:31:24.021Z,100927.59
2023-02-02T18:33:53.951Z,100936.38
2023-02-02T18:36:23.883Z,100926.63
2023-02-02T18:38:54.016Z,100933.13
2023-02-02T18:41:22.984Z,100936.72
2023-02-02T18:43:52.925Z,100938.41
2023-02-02T18:46:21.661Z,100939.34
2023-02-02T18:48:50.394Z,100939.47
2023-02-02T18:51:22.061Z,100937.81
2023-02-02T18:53:50.722Z,100935.28
2023-02-02T18:56:19.424Z,100934.44
2023-02-02T18:58:48.121Z,100935.28
2023-02-02T19:01:19.288Z,100932.53
2023-02-02T19:03:54.285Z,100936.25
2023-02-02T19:06:40.401Z,100931.06
2023-02-02T19:09:09.986Z,100938.16
2023-02-02T19:11:48.152Z,100927.00
2023-02-02T19:14:31.177Z,100928.53
2023-02-02T19:17:24.583Z,100930.47
2023-02-02T19:19:53.273Z,100930.22
2023-02-02T19:22:30.592Z,100921.59
2023-02-02T19:24:59.919Z,100928.44
2023-02-02T19:27:28.579Z,100928.69
2023-02-02T19:29:59.938Z,100927.97
2023-02-02T19:32:33.749Z,100928.69
2023-02-02T19:35:02.867Z,100928.69
2023-02-02T19:37:33.610Z,100930.38
2023-02-02T19:40:10.971Z,100926.16
2023-02-02T19:42:46.844Z,100927.59
2023-02-02T19:45:35.347Z,100929.53
2023-02-02T19:48:19.423Z,100928.69
2023-02-02T19:50:48.637Z,100925.91
2023-02-02T19:53:39.151Z,100931.19
2023-02-02T19:56:28.954Z,100939.09
2023-02-02T19:58:57.639Z,100926.03
2023-02-02T20:01:28.227Z,100931.19
2023-02-02T20:03:58.514Z,100935.66
2023-02-02T20:06:30.644Z,100931.19
2023-02-02T20:09:01.033Z,100936.34
2023-02-02T20:11:36.055Z,100926.66
2023-02-02T20:14:19.680Z,100933.97
2023-02-02T20:16:54.991Z,100953.38
2023-02-02T20:19:26.664Z,100959.13
2023-02-02T20:21:55.829Z,100955.53
2023-02-02T20:24:40.547Z,100965.97
2023-02-02T20:27:25.587Z,100964.16
2023-02-02T20:29:57.036Z,100966.81
2023-02-02T20:32:39.196Z,100970.19
2023-02-02T20:35:23.791Z,100969.34
2023-02-02T20:37:52.808Z,100963.22
2023-02-02T20:40:30.847Z,100962.38
2023-02-02T20:42:59.636Z,100970.06
2023-02-02T20:45:28.250Z,100975.22
2023-02-02T20:47:56.910Z,100963.44
2023-02-02T20:50:25.816Z,100961.19
2023-02-02T20:52:55.794Z,100957.81
2023-02-02T20:55:24.481Z,100949.19
2023-02-02T20:57:53.112Z,100947.63
2023-02-02T21:00:27.040Z,100947.50
2023-02-02T21:02:56.451Z,100950.25
2023-02-02T21:05:25.477Z,100952.53
2023-02-02T21:07:55.698Z,100941.16
2023-02-02T21:10:27.351Z,100937.19
2023-02-02T21:12:56.193Z,100925.34
2023-02-02T21:15:26.351Z,100929.38
2023-02-02T21:17:55.282Z,100932.88
2023-02-02T21:20:24.123Z,100932.25
2023-02-02T21:22:52.786Z,100927.72
2023-02-02T21:25:21.353Z,100926.88
2023-02-02T21:27:49.985Z,100939.00
2023-02-02T21:30:18.655Z,100939.94
2023-02-02T21:32:47.268Z,100925.09
2023-02-02T21:35:15.983Z,100931.06
2023-02-02T21:37:46.907Z,100943.56
2023-02-02T21:40:32.950Z,100943.66
2023-02-02T21:43:07.168Z,100939.94
2023-02-02T21:45:39.892Z,100940.06
2023-02-02T21:48:34.945Z,100942.56
2023-02-02T21:51:27.393Z,100934.66
2023-02-02T21:53:56.055Z,100932.03
2023-02-02T21:56:40.600Z,100931.91
2023-02-02T21:59:23.893Z,100925.69
2023-02-02T22:01:54.297Z,100922.69
2023-02-02T22:04:22.879Z,100930.72
2023-02-02T22:07:00.617Z,100931.06
2023-02-02T22:09:38.966Z,100927.50
2023-02-02T22:12:22.280Z,100924.13
2023-02-02T22:14:53.222Z,100921.47
2023-02-02T22:17:40.640Z,100901.69
2023-02-02T22:20:34.722Z,100910.56
2023-02-02T22:23:03.843Z,100912.25
2023-02-02T22:25:39.495Z,100914.28
2023-02-02T22:28:26.114Z,100913.19
2023-02-02T22:30:56.503Z,100902.88
2023-02-02T22:33:26.483Z,100898.19
2023-02-02T22:35:55.201Z,100887.97
2023-02-02T22:38:26.091Z,100890.53
2023-02-02T22:40:54.810Z,100885.25
2023-02-02T22:43:23.501Z,100876.50
2023-02-02T22:45:51.964Z,100881.63
2023-02-02T22:48:20.472Z,100882.72
2023-02-02T22:50:48.898Z,100881.63
2023-02-02T22:53:17.352Z,100881.63
2023-02-02T22:55:45.762Z,100880.78
2023-02-02T22:58:14.245Z,100878.03
2023-02-02T23:00:42.744Z,100881.88
2023-02-02T23:03:11.275Z,100878.53
2023-02-02T23:05:39.671Z,100883.06
2023-02-02T23:08:08.178Z,100886.53
2023-02-02T23:10:36.888Z,100888.31
2023-02-02T23:13:06.402Z,100891.69
2023-02-02T23:15:35.722Z,100890.72
2023-02-02T23:18:04.554Z,100889.78
2023-02-02T23:20:32.951Z,100893.25
2023-02-02T23:23:02.108Z,100901.28
2023-02-02T23:25:30.504Z,100894.78
2023-02-02T23:27:59.094Z,100895.84
2023-02-02T23:30:27.843Z,100885.22
2023-02-02T23:32:56.783Z,100871.91
2023-02-02T23:35:25.205Z,100882.34
2023-02-02T23:37:53.631Z,100866.53
2023-02-02T23:40:22.135Z,100864.84
2023-02-02T23:42:50.570Z,100870.34
2023-02-02T23:45:19.077Z,100863.28
2023-02-02T23:47:47.826Z,100851.03
2023-02-02T23:50:16.387Z,100852.72
2023-02-02T23:52:44.831Z,100858.09
2023-02-02T23:55:13.286Z,100852.72
2023-02-02T23:57:41.743Z,100849.97
